sensor_id;sensor_type;location;lat;lon;timestamp;pressure;altitude;pressure_sealevel;temperature;humidity
44148;BME280;29810;55.848;37.368;2022-07-25T00:00:44;98368.38;;;20.06;71.49
44148;BME280;29810;55.848;37.368;2022-07-25T00:03:46;98370.72;;;20.09;71.63
44148;BME280;29810;55.848;37.368;2022-07-25T00:06:48;98368.06;;;20.09;71.79
44148;BME280;29810;55.848;37.368;2022-07-25T00:09:49;98371.00;;;20.06;71.90
44148;BME280;29810;55.848;37.368;2022-07-25T00:12:51;98360.25;;;19.98;72.28
44148;BME280;29810;55.848;37.368;2022-07-25T00:15:52;98354.72;;;20.01;72.34
44148;BME280;29810;55.848;37.368;2022-07-25T00:18:54;98345.50;;;19.95;72.29
44148;BME280;29810;55.848;37.368;2022-07-25T00:21:55;98345.50;;;19.95;72.44
44148;BME280;29810;55.848;37.368;2022-07-25T00:24:58;98351.06;;;19.92;72.56
44148;BME280;29810;55.848;37.368;2022-07-25T00:28:00;98346.06;;;19.89;72.76
44148;BME280;29810;55.848;37.368;2022-07-25T00:31:01;98346.87;;;19.90;72.72
44148;BME280;29810;55.848;37.368;2022-07-25T00:34:03;98345.22;;;19.89;72.86
44148;BME280;29810;55.848;37.368;2022-07-25T00:37:04;98352.72;;;19.83;73.12
44148;BME280;29810;55.848;37.368;2022-07-25T00:40:06;98354.53;;;19.83;73.15
44148;BME280;29810;55.848;37.368;2022-07-25T00:43:08;98347.44;;;19.83;73.45
44148;BME280;29810;55.848;37.368;2022-07-25T00:46:17;98349.50;;;19.80;73.67
44148;BME280;29810;55.848;37.368;2022-07-25T00:49:18;98345.31;;;19.77;74.55
44148;BME280;29810;55.848;37.368;2022-07-25T00:52:20;98337.22;;;19.69;74.01
44148;BME280;29810;55.848;37.368;2022-07-25T00:55:22;98346.81;;;19.70;74.16
44148;BME280;29810;55.848;37.368;2022-07-25T00:58:23;98351.53;;;19.66;74.37
44148;BME280;29810;55.848;37.368;2022-07-25T01:01:25;98351.69;;;19.65;74.33
44148;BME280;29810;55.848;37.368;2022-07-25T01:04:27;98356.69;;;19.68;74.30
44148;BME280;29810;55.848;37.368;2022-07-25T01:07:28;98352.66;;;19.64;74.56
44148;BME280;29810;55.848;37.368;2022-07-25T01:10:31;98346.69;;;19.62;74.57
44148;BME280;29810;55.848;37.368;2022-07-25T01:13:33;98353.88;;;19.60;74.44
44148;BME280;29810;55.848;37.368;2022-07-25T01:16:35;98349.56;;;19.59;74.55
44148;BME280;29810;55.848;37.368;2022-07-25T01:19:36;98347.91;;;19.58;74.57
44148;BME280;29810;55.848;37.368;2022-07-25T01:22:38;98359.03;;;19.61;74.48
44148;BME280;29810;55.848;37.368;2022-07-25T01:25:39;98350.97;;;19.63;74.43
44148;BME280;29810;55.848;37.368;2022-07-25T01:28:41;98348.75;;;19.58;74.57
44148;BME280;29810;55.848;37.368;2022-07-25T01:31:43;98352.41;;;19.67;74.52
44148;BME280;29810;55.848;37.368;2022-07-25T01:34:44;98358.25;;;19.80;74.11
44148;BME280;29810;55.848;37.368;2022-07-25T01:37:46;98350.53;;;19.98;73.23
44148;BME280;29810;55.848;37.368;2022-07-25T01:40:47;98358.88;;;20.33;72.09
44148;BME280;29810;55.848;37.368;2022-07-25T01:43:49;98352.91;;;20.70;70.61
44148;BME280;29810;55.848;37.368;2022-07-25T01:46:51;98353.06;;;21.06;69.03
44148;BME280;29810;55.848;37.368;2022-07-25T01:49:53;98350.00;;;21.48;67.41
44148;BME280;29810;55.848;37.368;2022-07-25T01:52:54;98339.37;;;21.76;65.90
44148;BME280;29810;55.848;37.368;2022-07-25T01:58:57;98347.81;;;22.62;62.96
44148;BME280;29810;55.848;37.368;2022-07-25T02:01:59;98343.91;;;23.01;61.60
44148;BME280;29810;55.848;37.368;2022-07-25T02:05:00;98338.97;;;23.40;59.99
44148;BME280;29810;55.848;37.368;2022-07-25T02:08:02;98340.81;;;23.83;58.54
44148;BME280;29810;55.848;37.368;2022-07-25T02:11:04;98339.53;;;24.11;57.33
44148;BME280;29810;55.848;37.368;2022-07-25T02:14:06;98330.88;;;24.42;56.31
44148;BME280;29810;55.848;37.368;2022-07-25T02:17:07;98333.19;;;24.95;54.84
44148;BME280;29810;55.848;37.368;2022-07-25T02:20:11;98327.41;;;25.39;53.18
44148;BME280;29810;55.848;37.368;2022-07-25T02:23:12;98324.91;;;25.69;52.12
44148;BME280;29810;55.848;37.368;2022-07-25T02:26:14;98323.41;;;26.06;51.15
44148;BME280;29810;55.848;37.368;2022-07-25T02:29:16;98330.34;;;26.54;49.96
44148;BME280;29810;55.848;37.368;2022-07-25T02:32:17;98320.97;;;26.96;48.73
44148;BME280;29810;55.848;37.368;2022-07-25T02:35:19;98320.56;;;27.59;47.11
44148;BME280;29810;55.848;37.368;2022-07-25T02:38:21;98323.53;;;27.86;46.18
44148;BME280;29810;55.848;37.368;2022-07-25T02:41:23;98323.41;;;26.30;49.27
44148;BME280;29810;55.848;37.368;2022-07-25T02:44:24;98322.22;;;24.90;52.94
44148;BME280;29810;55.848;37.368;2022-07-25T02:47:26;98332.03;;;24.07;55.61
44148;BME280;29810;55.848;37.368;2022-07-25T02:50:27;98331.34;;;23.45;57.54
44148;BME280;29810;55.848;37.368;2022-07-25T02:53:29;98333.94;;;23.03;59.04
44148;BME280;29810;55.848;37.368;2022-07-25T02:56:32;98326.69;;;22.78;60.03
44148;BME280;29810;55.848;37.368;2022-07-25T02:59:33;98328.97;;;22.73;60.53
44148;BME280;29810;55.848;37.368;2022-07-25T03:02:35;98331.75;;;23.16;59.65
44148;BME280;29810;55.848;37.368;2022-07-25T03:05:36;98321.84;;;25.01;54.83
44148;BME280;29810;55.848;37.368;2022-07-25T03:08:38;98316.81;;;27.38;48.46
44148;BME280;29810;55.848;37.368;2022-07-25T03:11:39;98308.53;;;29.13;43.91
44148;BME280;29810;55.848;37.368;2022-07-25T03:14:41;98296.91;;;30.43;40.93
44148;BME280;29810;55.848;37.368;2022-07-25T03:17:42;98295.72;;;31.31;38.93
44148;BME280;29810;55.848;37.368;2022-07-25T03:20:44;98278.72;;;31.83;37.58
44148;BME280;29810;55.848;37.368;2022-07-25T03:23:45;98295.16;;;32.39;36.53
44148;BME280;29810;55.848;37.368;2022-07-25T03:26:47;98289.19;;;32.80;35.65
44148;BME280;29810;55.848;37.368;2022-07-25T03:29:48;98290.75;;;33.25;34.89
44148;BME280;29810;55.848;37.368;2022-07-25T03:32:50;98290.91;;;33.79;33.79
44148;BME280;29810;55.848;37.368;2022-07-25T03:35:51;98269.50;;;34.20;32.82
44148;BME280;29810;55.848;37.368;2022-07-25T03:38:53;98281.44;;;34.90;31.85
44148;BME280;29810;55.848;37.368;2022-07-25T03:41:57;98284.34;;;35.12;31.33
44148;BME280;29810;55.848;37.368;2022-07-25T03:44:58;98284.75;;;35.45;30.75
44148;BME280;29810;55.848;37.368;2022-07-25T03:48:01;98293.53;;;35.64;30.40
44148;BME280;29810;55.848;37.368;2022-07-25T03:51:02;98282.91;;;35.62;30.13
44148;BME280;29810;55.848;37.368;2022-07-25T03:54:04;98290.94;;;35.57;30.23
44148;BME280;29810;55.848;37.368;2022-07-25T03:57:07;98296.69;;;35.90;29.83
44148;BME280;29810;55.848;37.368;2022-07-25T04:00:09;98292.81;;;36.49;29.03
44148;BME280;29810;55.848;37.368;2022-07-25T04:03:11;98305.56;;;36.48;28.77
44148;BME280;29810;55.848;37.368;2022-07-25T04:06:12;98293.44;;;36.90;28.35
44148;BME280;29810;55.848;37.368;2022-07-25T04:09:14;98290.72;;;37.12;28.09
44148;BME280;29810;55.848;37.368;2022-07-25T04:12:16;98296.56;;;37.70;27.29
44148;BME280;29810;55.848;37.368;2022-07-25T04:15:18;98292.69;;;37.88;26.98
44148;BME280;29810;55.848;37.368;2022-07-25T04:18:20;98289.03;;;38.05;26.80
44148;BME280;29810;55.848;37.368;2022-07-25T04:21:22;98286.41;;;38.15;26.64
44148;BME280;29810;55.848;37.368;2022-07-25T04:24:24;98284.03;;;38.62;26.10
44148;BME280;29810;55.848;37.368;2022-07-25T04:27:25;98289.72;;;38.55;26.05
44148;BME280;29810;55.848;37.368;2022-07-25T04:30:27;98285.97;;;38.66;25.96
44148;BME280;29810;55.848;37.368;2022-07-25T04:33:29;98274.16;;;38.93;25.66
44148;BME280;29810;55.848;37.368;2022-07-25T04:36:30;98278.78;;;38.92;25.62
44148;BME280;29810;55.848;37.368;2022-07-25T04:39:32;98284.59;;;39.17;25.33
44148;BME280;29810;55.848;37.368;2022-07-25T04:42:33;98285.50;;;39.28;25.29
44148;BME280;29810;55.848;37.368;2022-07-25T04:45:35;98285.00;;;39.41;25.15
44148;BME280;29810;55.848;37.368;2022-07-25T04:48:36;98286.91;;;39.35;25.28
44148;BME280;29810;55.848;37.368;2022-07-25T04:51:38;98289.19;;;39.64;24.85
44148;BME280;29810;55.848;37.368;2022-07-25T04:54:39;98298.19;;;39.70;24.75
44148;BME280;29810;55.848;37.368;2022-07-25T04:57:41;98295.50;;;40.06;24.39
44148;BME280;29810;55.848;37.368;2022-07-25T05:00:43;98286.22;;;40.17;24.17
44148;BME280;29810;55.848;37.368;2022-07-25T05:03:44;98266.84;;;40.39;23.88
44148;BME280;29810;55.848;37.368;2022-07-25T05:06:46;98287.28;;;40.68;23.66
44148;BME280;29810;55.848;37.368;2022-07-25T05:09:47;98293.25;;;40.85;23.48
44148;BME280;29810;55.848;37.368;2022-07-25T05:12:49;98277.41;;;40.87;23.46
44148;BME280;29810;55.848;37.368;2022-07-25T05:15:50;98279.00;;;41.09;23.23
44148;BME280;29810;55.848;37.368;2022-07-25T05:18:52;98284.22;;;41.61;22.62
44148;BME280;29810;55.848;37.368;2022-07-25T05:21:53;98276.38;;;41.88;22.21
44148;BME280;29810;55.848;37.368;2022-07-25T05:24:55;98283.88;;;42.07;21.93
44148;BME280;29810;55.848;37.368;2022-07-25T05:27:57;98277.78;;;42.20;21.63
44148;BME280;29810;55.848;37.368;2022-07-25T05:30:58;98275.03;;;42.20;21.38
44148;BME280;29810;55.848;37.368;2022-07-25T05:34:00;98278.19;;;42.03;21.67
44148;BME280;29810;55.848;37.368;2022-07-25T05:37:02;98278.06;;;42.19;21.57
44148;BME280;29810;55.848;37.368;2022-07-25T05:40:06;98284.09;;;42.16;21.47
44148;BME280;29810;55.848;37.368;2022-07-25T05:43:07;98290.22;;;41.02;22.76
44148;BME280;29810;55.848;37.368;2022-07-25T05:46:09;98291.88;;;40.83;23.06
44148;BME280;29810;55.848;37.368;2022-07-25T05:49:10;98298.22;;;40.73;23.26
44148;BME280;29810;55.848;37.368;2022-07-25T05:52:12;98294.37;;;40.74;23.37
44148;BME280;29810;55.848;37.368;2022-07-25T05:55:14;98298.00;;;37.78;26.84
44148;BME280;29810;55.848;37.368;2022-07-25T05:58:16;98309.19;;;34.62;31.38
44148;BME280;29810;55.848;37.368;2022-07-25T06:01:17;98315.47;;;32.85;34.69
44148;BME280;29810;55.848;37.368;2022-07-25T06:04:19;98310.81;;;32.23;36.30
44148;BME280;29810;55.848;37.368;2022-07-25T06:07:20;98292.63;;;33.74;33.52
44148;BME280;29810;55.848;37.368;2022-07-25T06:10:22;98288.38;;;34.39;32.56
44148;BME280;29810;55.848;37.368;2022-07-25T06:13:24;98280.78;;;36.61;28.99
44148;BME280;29810;55.848;37.368;2022-07-25T06:16:26;98266.09;;;37.41;27.75
44148;BME280;29810;55.848;37.368;2022-07-25T06:19:28;98282.44;;;37.96;27.07
44148;BME280;29810;55.848;37.368;2022-07-25T06:22:30;98291.72;;;36.67;28.39
44148;BME280;29810;55.848;37.368;2022-07-25T06:25:31;98291.53;;;34.59;31.45
44148;BME280;29810;55.848;37.368;2022-07-25T06:28:33;98292.44;;;33.26;33.84
44148;BME280;29810;55.848;37.368;2022-07-25T06:31:34;98293.66;;;32.86;34.73
44148;BME280;29810;55.848;37.368;2022-07-25T06:34:36;98293.22;;;31.82;36.44
44148;BME280;29810;55.848;37.368;2022-07-25T06:37:38;98309.94;;;30.66;38.14
44148;BME280;29810;55.848;37.368;2022-07-25T06:40:40;98310.31;;;30.03;39.61
44148;BME280;29810;55.848;37.368;2022-07-25T06:43:41;98302.41;;;29.74;40.28
44148;BME280;29810;55.848;37.368;2022-07-25T06:46:43;98314.13;;;29.60;40.94
44148;BME280;29810;55.848;37.368;2022-07-25T06:49:45;98310.59;;;29.66;41.17
44148;BME280;29810;55.848;37.368;2022-07-25T06:52:46;98303.06;;;29.90;40.94
44148;BME280;29810;55.848;37.368;2022-07-25T06:55:48;98294.00;;;30.45;39.81
44148;BME280;29810;55.848;37.368;2022-07-25T06:58:50;98306.63;;;30.71;39.50
44148;BME280;29810;55.848;37.368;2022-07-25T07:01:53;98280.38;;;30.46;38.96
44148;BME280;29810;55.848;37.368;2022-07-25T07:04:54;98301.22;;;30.11;39.69
44148;BME280;29810;55.848;37.368;2022-07-25T07:07:56;98304.16;;;29.47;41.17
44148;BME280;29810;55.848;37.368;2022-07-25T07:10:58;98301.75;;;29.24;41.67
44148;BME280;29810;55.848;37.368;2022-07-25T07:14:00;98302.94;;;28.80;42.78
44148;BME280;29810;55.848;37.368;2022-07-25T07:17:03;98307.63;;;28.42;43.86
44148;BME280;29810;55.848;37.368;2022-07-25T07:20:06;98320.88;;;28.29;44.62
44148;BME280;29810;55.848;37.368;2022-07-25T07:23:08;98326.28;;;27.92;45.81
44148;BME280;29810;55.848;37.368;2022-07-25T07:26:10;98316.06;;;28.18;45.28
44148;BME280;29810;55.848;37.368;2022-07-25T07:29:12;98317.16;;;28.52;44.65
44148;BME280;29810;55.848;37.368;2022-07-25T07:32:13;98307.69;;;28.78;44.29
44148;BME280;29810;55.848;37.368;2022-07-25T07:35:14;98292.31;;;28.93;44.11
44148;BME280;29810;55.848;37.368;2022-07-25T07:38:16;98303.13;;;28.71;44.51
44148;BME280;29810;55.848;37.368;2022-07-25T07:41:18;98317.37;;;28.79;44.57
44148;BME280;29810;55.848;37.368;2022-07-25T07:44:20;98305.94;;;28.98;43.95
44148;BME280;29810;55.848;37.368;2022-07-25T07:47:21;98313.91;;;29.55;42.82
44148;BME280;29810;55.848;37.368;2022-07-25T07:50:24;98307.19;;;29.99;41.83
44148;BME280;29810;55.848;37.368;2022-07-25T07:53:27;98313.41;;;29.93;42.04
44148;BME280;29810;55.848;37.368;2022-07-25T07:56:47;98302.47;;;30.01;41.86
44148;BME280;29810;55.848;37.368;2022-07-25T07:59:49;98310.09;;;29.91;41.68
44148;BME280;29810;55.848;37.368;2022-07-25T08:02:52;98302.25;;;29.34;42.68
44148;BME280;29810;55.848;37.368;2022-07-25T08:05:53;98292.31;;;28.93;43.51
44148;BME280;29810;55.848;37.368;2022-07-25T08:08:55;98305.41;;;28.53;44.22
44148;BME280;29810;55.848;37.368;2022-07-25T08:11:56;98292.72;;;28.90;43.80
44148;BME280;29810;55.848;37.368;2022-07-25T08:14:58;98300.34;;;29.28;42.94
44148;BME280;29810;55.848;37.368;2022-07-25T08:17:59;98300.09;;;29.23;43.17
44148;BME280;29810;55.848;37.368;2022-07-25T08:21:02;98288.84;;;28.99;43.45
44148;BME280;29810;55.848;37.368;2022-07-25T08:24:06;98294.19;;;29.34;43.10
44148;BME280;29810;55.848;37.368;2022-07-25T08:27:08;98302.75;;;29.16;41.77
44148;BME280;29810;55.848;37.368;2022-07-25T08:30:12;98307.84;;;28.69;42.39
44148;BME280;29810;55.848;37.368;2022-07-25T08:33:14;98303.91;;;29.00;41.92
44148;BME280;29810;55.848;37.368;2022-07-25T08:36:18;98291.97;;;29.03;41.61
44148;BME280;29810;55.848;37.368;2022-07-25T08:39:20;98300.75;;;29.25;41.36
44148;BME280;29810;55.848;37.368;2022-07-25T08:42:21;98307.63;;;28.42;43.38
44148;BME280;29810;55.848;37.368;2022-07-25T08:45:25;98315.81;;;27.98;44.74
44148;BME280;29810;55.848;37.368;2022-07-25T08:48:27;98332.69;;;27.40;46.55
44148;BME280;29810;55.848;37.368;2022-07-25T08:51:31;98303.94;;;27.34;46.82
44148;BME280;29810;55.848;37.368;2022-07-25T08:54:34;98327.19;;;28.00;46.25
44148;BME280;29810;55.848;37.368;2022-07-25T08:57:36;98315.72;;;28.28;45.29
44148;BME280;29810;55.848;37.368;2022-07-25T09:00:42;98328.19;;;27.99;45.89
44148;BME280;29810;55.848;37.368;2022-07-25T09:03:43;98326.72;;;27.96;46.01
44148;BME280;29810;55.848;37.368;2022-07-25T09:06:51;98322.25;;;28.18;45.12
44148;BME280;29810;55.848;37.368;2022-07-25T09:09:53;98329.56;;;28.09;44.97
44148;BME280;29810;55.848;37.368;2022-07-25T09:12:59;98315.59;;;28.14;44.28
44148;BME280;29810;55.848;37.368;2022-07-25T09:16:02;98323.69;;;28.21;44.89
44148;BME280;29810;55.848;37.368;2022-07-25T09:19:14;98311.06;;;28.36;43.80
44148;BME280;29810;55.848;37.368;2022-07-25T09:22:15;98314.72;;;28.29;44.54
44148;BME280;29810;55.848;37.368;2022-07-25T09:25:22;98319.28;;;28.63;43.75
44148;BME280;29810;55.848;37.368;2022-07-25T09:28:24;98309.44;;;29.27;42.96
44148;BME280;29810;55.848;37.368;2022-07-25T09:31:30;98288.38;;;28.89;42.84
44148;BME280;29810;55.848;37.368;2022-07-25T09:37:36;98308.09;;;28.53;43.15
44148;BME280;29810;55.848;37.368;2022-07-25T09:40:37;98307.78;;;28.13;43.49
44148;BME280;29810;55.848;37.368;2022-07-25T09:43:40;98313.66;;;27.86;43.28
44148;BME280;29810;55.848;37.368;2022-07-25T09:46:42;98308.78;;;27.38;44.58
44148;BME280;29810;55.848;37.368;2022-07-25T09:49:44;98310.34;;;27.33;45.28
44148;BME280;29810;55.848;37.368;2022-07-25T09:52:49;98298.88;;;27.54;45.06
44148;BME280;29810;55.848;37.368;2022-07-25T09:55:52;98314.34;;;27.95;44.67
44148;BME280;29810;55.848;37.368;2022-07-25T09:58:55;98314.88;;;27.47;45.84
44148;BME280;29810;55.848;37.368;2022-07-25T10:02:13;98318.81;;;27.36;46.27
44148;BME280;29810;55.848;37.368;2022-07-25T10:08:44;98314.47;;;27.87;45.73
44148;BME280;29810;55.848;37.368;2022-07-25T10:12:05;98311.84;;;28.08;44.83
44148;BME280;29810;55.848;37.368;2022-07-25T10:15:10;98310.44;;;28.13;44.63
44148;BME280;29810;55.848;37.368;2022-07-25T10:18:14;98310.13;;;27.86;45.04
44148;BME280;29810;55.848;37.368;2022-07-25T10:21:16;98309.59;;;27.90;45.00
44148;BME280;29810;55.848;37.368;2022-07-25T10:24:18;98307.78;;;27.76;44.76
44148;BME280;29810;55.848;37.368;2022-07-25T10:27:22;98308.41;;;27.56;45.04
44148;BME280;29810;55.848;37.368;2022-07-25T10:30:33;98307.72;;;27.69;44.61
44148;BME280;29810;55.848;37.368;2022-07-25T10:33:40;98306.97;;;27.97;43.91
44148;BME280;29810;55.848;37.368;2022-07-25T10:36:47;98304.06;;;27.40;45.04
44148;BME280;29810;55.848;37.368;2022-07-25T10:39:48;98303.25;;;27.25;45.75
44148;BME280;29810;55.848;37.368;2022-07-25T10:43:17;98299.19;;;26.99;46.46
44148;BME280;29810;55.848;37.368;2022-07-25T10:46:18;98291.44;;;27.19;46.14
44148;BME280;29810;55.848;37.368;2022-07-25T10:49:23;98292.66;;;27.68;45.02
44148;BME280;29810;55.848;37.368;2022-07-25T10:52:28;98286.16;;;27.99;44.49
44148;BME280;29810;55.848;37.368;2022-07-25T10:55:34;98276.38;;;28.06;43.87
44148;BME280;29810;55.848;37.368;2022-07-25T10:59:03;98289.62;;;27.93;43.92
44148;BME280;29810;55.848;37.368;2022-07-25T11:02:07;98290.19;;;28.03;43.61
44148;BME280;29810;55.848;37.368;2022-07-25T11:05:09;98286.44;;;28.04;43.36
44148;BME280;29810;55.848;37.368;2022-07-25T11:08:11;98282.66;;;27.99;43.46
44148;BME280;29810;55.848;37.368;2022-07-25T11:11:13;98285.78;;;27.81;43.76
44148;BME280;29810;55.848;37.368;2022-07-25T11:14:19;98288.72;;;27.86;43.76
44148;BME280;29810;55.848;37.368;2022-07-25T11:17:22;98284.84;;;27.67;44.17
44148;BME280;29810;55.848;37.368;2022-07-25T11:20:24;98279.88;;;27.85;43.51
44148;BME280;29810;55.848;37.368;2022-07-25T11:23:25;98272.41;;;28.24;42.79
44148;BME280;29810;55.848;37.368;2022-07-25T11:26:27;98266.19;;;28.73;42.01
44148;BME280;29810;55.848;37.368;2022-07-25T11:29:29;98268.41;;;28.98;41.35
44148;BME280;29810;55.848;37.368;2022-07-25T11:32:38;98264.13;;;28.69;41.13
44148;BME280;29810;55.848;37.368;2022-07-25T11:35:40;98265.34;;;28.66;41.75
44148;BME280;29810;55.848;37.368;2022-07-25T11:38:46;98263.03;;;28.98;41.18
44148;BME280;29810;55.848;37.368;2022-07-25T11:42:07;98262.00;;;29.34;40.48
44148;BME280;29810;55.848;37.368;2022-07-25T11:45:29;98257.06;;;29.45;40.10
44148;BME280;29810;55.848;37.368;2022-07-25T11:48:38;98250.41;;;29.34;39.98
44148;BME280;29810;55.848;37.368;2022-07-25T11:51:40;98250.78;;;28.54;41.28
44148;BME280;29810;55.848;37.368;2022-07-25T11:54:50;98241.41;;;28.15;41.45
44148;BME280;29810;55.848;37.368;2022-07-25T11:58:00;98264.72;;;27.99;42.48
44148;BME280;29810;55.848;37.368;2022-07-25T12:01:10;98272.13;;;27.75;43.21
44148;BME280;29810;55.848;37.368;2022-07-25T12:04:15;98264.00;;;28.05;42.36
44148;BME280;29810;55.848;37.368;2022-07-25T12:07:17;98254.28;;;28.26;41.35
44148;BME280;29810;55.848;37.368;2022-07-25T12:10:38;98251.56;;;28.48;41.31
44148;BME280;29810;55.848;37.368;2022-07-25T12:13:39;98253.00;;;28.72;41.16
44148;BME280;29810;55.848;37.368;2022-07-25T12:16:41;98248.66;;;28.42;41.27
44148;BME280;29810;55.848;37.368;2022-07-25T12:19:44;98248.28;;;28.24;41.87
44148;BME280;29810;55.848;37.368;2022-07-25T12:22:49;98254.34;;;27.89;42.51
44148;BME280;29810;55.848;37.368;2022-07-25T12:25:51;98254.84;;;27.78;42.75
44148;BME280;29810;55.848;37.368;2022-07-25T12:28:53;98221.47;;;27.37;43.31
44148;BME280;29810;55.848;37.368;2022-07-25T12:31:54;98259.97;;;27.21;44.00
44148;BME280;29810;55.848;37.368;2022-07-25T12:34:56;98244.22;;;26.52;45.67
44148;BME280;29810;55.848;37.368;2022-07-25T12:37:58;98236.84;;;26.16;46.54
44148;BME280;29810;55.848;37.368;2022-07-25T12:41:00;98243.75;;;26.63;46.17
44148;BME280;29810;55.848;37.368;2022-07-25T12:44:02;98238.59;;;27.06;45.14
44148;BME280;29810;55.848;37.368;2022-07-25T12:47:04;98240.28;;;26.92;44.91
44148;BME280;29810;55.848;37.368;2022-07-25T12:50:06;98228.84;;;26.84;45.31
44148;BME280;29810;55.848;37.368;2022-07-25T12:53:08;98227.00;;;26.99;45.07
44148;BME280;29810;55.848;37.368;2022-07-25T12:56:10;98228.75;;;27.07;44.74
44148;BME280;29810;55.848;37.368;2022-07-25T12:59:11;98237.56;;;27.07;44.24
44148;BME280;29810;55.848;37.368;2022-07-25T13:02:13;98233.91;;;27.08;44.38
44148;BME280;29810;55.848;37.368;2022-07-25T13:05:15;98223.19;;;27.08;44.35
44148;BME280;29810;55.848;37.368;2022-07-25T13:08:17;98230.25;;;27.31;44.30
44148;BME280;29810;55.848;37.368;2022-07-25T13:11:18;98229.59;;;27.44;43.97
44148;BME280;29810;55.848;37.368;2022-07-25T13:14:20;98221.12;;;27.62;43.08
44148;BME280;29810;55.848;37.368;2022-07-25T13:17:22;98241.84;;;27.53;43.10
44148;BME280;29810;55.848;37.368;2022-07-25T13:20:23;98249.25;;;27.36;44.18
44148;BME280;29810;55.848;37.368;2022-07-25T13:23:25;98247.31;;;27.45;44.23
44148;BME280;29810;55.848;37.368;2022-07-25T13:26:26;98243.53;;;27.76;43.68
44148;BME280;29810;55.848;37.368;2022-07-25T13:29:28;98240.31;;;27.87;43.27
44148;BME280;29810;55.848;37.368;2022-07-25T13:32:30;98232.47;;;27.86;43.22
44148;BME280;29810;55.848;37.368;2022-07-25T13:35:32;98244.41;;;27.83;43.52
44148;BME280;29810;55.848;37.368;2022-07-25T13:38:34;98242.41;;;27.49;43.92
44148;BME280;29810;55.848;37.368;2022-07-25T13:41:36;98233.34;;;26.98;45.45
44148;BME280;29810;55.848;37.368;2022-07-25T13:44:37;98240.09;;;26.94;45.71
44148;BME280;29810;55.848;37.368;2022-07-25T13:47:39;98239.25;;;26.64;46.28
44148;BME280;29810;55.848;37.368;2022-07-25T13:50:40;98238.31;;;26.41;46.89
44148;BME280;29810;55.848;37.368;2022-07-25T13:53:42;98242.34;;;26.67;46.16
44148;BME280;29810;55.848;37.368;2022-07-25T13:56:44;98242.25;;;26.45;46.75
44148;BME280;29810;55.848;37.368;2022-07-25T13:59:47;98241.63;;;26.05;47.25
44148;BME280;29810;55.848;37.368;2022-07-25T14:02:49;98242.75;;;25.88;47.43
44148;BME280;29810;55.848;37.368;2022-07-25T14:05:50;98234.72;;;25.88;47.77
44148;BME280;29810;55.848;37.368;2022-07-25T14:08:52;98234.72;;;26.11;47.35
44148;BME280;29810;55.848;37.368;2022-07-25T14:11:53;98232.84;;;26.65;46.46
44148;BME280;29810;55.848;37.368;2022-07-25T14:14:55;98234.09;;;26.92;45.76
44148;BME280;29810;55.848;37.368;2022-07-25T14:17:57;98237.47;;;27.16;45.40
44148;BME280;29810;55.848;37.368;2022-07-25T14:20:58;98225.06;;;26.93;45.27
44148;BME280;29810;55.848;37.368;2022-07-25T14:24:00;98235.16;;;26.53;46.30
44148;BME280;29810;55.848;37.368;2022-07-25T14:27:02;98243.59;;;26.80;45.64
44148;BME280;29810;55.848;37.368;2022-07-25T14:30:05;98238.44;;;26.93;45.36
44148;BME280;29810;55.848;37.368;2022-07-25T14:33:07;98242.38;;;27.12;45.21
44148;BME280;29810;55.848;37.368;2022-07-25T14:36:09;98247.69;;;26.67;45.94
44148;BME280;29810;55.848;37.368;2022-07-25T14:39:11;98245.53;;;26.18;47.14
44148;BME280;29810;55.848;37.368;2022-07-25T14:42:12;98250.63;;;26.42;46.74
44148;BME280;29810;55.848;37.368;2022-07-25T14:45:14;98240.97;;;26.41;46.44
44148;BME280;29810;55.848;37.368;2022-07-25T14:48:16;98235.38;;;26.66;46.03
44148;BME280;29810;55.848;37.368;2022-07-25T14:51:18;98240.91;;;26.94;45.34
44148;BME280;29810;55.848;37.368;2022-07-25T14:54:20;98244.66;;;27.30;44.96
44148;BME280;29810;55.848;37.368;2022-07-25T14:57:21;98244.25;;;27.48;44.13
44148;BME280;29810;55.848;37.368;2022-07-25T15:00:23;98237.94;;;27.56;44.02
44148;BME280;29810;55.848;37.368;2022-07-25T15:03:25;98231.44;;;27.43;44.23
44148;BME280;29810;55.848;37.368;2022-07-25T15:06:26;98230.19;;;27.39;43.84
44148;BME280;29810;55.848;37.368;2022-07-25T15:09:28;98233.34;;;27.13;44.26
44148;BME280;29810;55.848;37.368;2022-07-25T15:12:29;98242.00;;;27.15;44.49
44148;BME280;29810;55.848;37.368;2022-07-25T15:15:31;98244.19;;;27.41;43.94
44148;BME280;29810;55.848;37.368;2022-07-25T15:18:33;98258.47;;;27.49;43.94
44148;BME280;29810;55.848;37.368;2022-07-25T15:21:38;98253.41;;;27.39;44.07
44148;BME280;29810;55.848;37.368;2022-07-25T15:24:40;98266.31;;;27.50;43.83
44148;BME280;29810;55.848;37.368;2022-07-25T15:27:41;98248.78;;;27.48;44.04
44148;BME280;29810;55.848;37.368;2022-07-25T15:30:43;98257.97;;;27.60;43.93
44148;BME280;29810;55.848;37.368;2022-07-25T15:33:44;98246.22;;;27.39;44.50
44148;BME280;29810;55.848;37.368;2022-07-25T15:36:46;98241.16;;;27.45;44.72
44148;BME280;29810;55.848;37.368;2022-07-25T15:39:48;98245.28;;;27.47;44.96
44148;BME280;29810;55.848;37.368;2022-07-25T15:42:49;98251.34;;;27.56;44.98
44148;BME280;29810;55.848;37.368;2022-07-25T15:45:52;98248.28;;;27.81;44.75
44148;BME280;29810;55.848;37.368;2022-07-25T15:48:54;98262.03;;;27.04;46.95
44148;BME280;29810;55.848;37.368;2022-07-25T15:51:57;98263.50;;;26.92;47.49
44148;BME280;29810;55.848;37.368;2022-07-25T15:54:59;98269.94;;;27.13;47.25
44148;BME280;29810;55.848;37.368;2022-07-25T15:58:00;98280.16;;;27.54;46.42
44148;BME280;29810;55.848;37.368;2022-07-25T16:01:02;98289.34;;;27.66;46.17
44148;BME280;29810;55.848;37.368;2022-07-25T16:04:04;98281.91;;;27.47;46.71